Aviation Digital Data Service (ADDS)

Output produced by METARs form (1554 UTC 23 April 2017)
found at http://www.aviationweather.gov/adds/metars/
 
TAF SABE 231100Z 2312/2412 31005KT CAVOK TX21/2318Z TN18/2409Z 
     BECMG 2319/2321 09010KT 
     BECMG 2323/2401 07010KT 9999 SCT030 BKN050 
     BECMG 2402/2404 7000 RA 
       
TAF SACO 231100Z 2312/2412 32005KT CAVOK TX22/2318Z TN10/2410Z 
     PROB40 
     TEMPO 2312/2314 5000 BR 
     BECMG 2314/2316 36010KT 9999 SCT030
       
TAF SAAR 231100Z 2312/2412 05005KT CAVOK TX24/2318Z TN14/2410Z 
     BECMG 2316/2318 03010KT 
     BECMG 2323/2402 04005KT 
     TEMPO 2308/2311 3000 BR NSC
       
TAF SABE 231100Z 2312/2412 31005KT CAVOK TX21/2318Z TN18/2409Z 
     BECMG 2319/2321 09010KT 
     BECMG 2323/2401 07010KT 9999 SCT030 BKN050 
     BECMG 2402/2404 7000 RA 
       
TAF SACO 231100Z 2312/2412 32005KT CAVOK TX22/2318Z TN10/2410Z 
     PROB40 
     TEMPO 2312/2314 5000 BR 
     BECMG 2314/2316 36010KT 9999 SCT030
       
TAF SADF 231100Z 2312/2412 02005KT CAVOK TX21/2318Z TN15/2409Z 
     BECMG 2320/2322 09010KT 9999 SCT020 BKN050 
     PROB30 
     TEMPO 2323/2403 7000 RA
       
TAF SAEZ 231100Z 2312/2412 30005KT 9999 SCT035 BKN100 TX21/2318Z TN16/2409Z 
     BECMG 2319/2321 04010KT 9999 SCT030 BKN045 
     BECMG 2400/2403 7000 RA SCT025 OVC045
       
TAF SAME 231100Z 2312/2412 VRB03KT 9999 SCT040 TX23/2320Z TN12/2410Z
       
TAF SANT 231100Z 2312/2412 18005KT 2000 BR SCT020 BKN040 TX24/2318Z TN16/2410Z 
     BECMG 2314/1316 05010KT 9999 BKN045
       
TAF SARE 231100Z 2312/2412 16005KT CAVOK TX26/2318Z TN13/2409Z
       
TAF SARF 231100Z 2312/2412 16005KT 9999 SCT035 BKN100 TX26/2318Z TN13/2409Z
       
TAF SARI 231100Z 2312/2412 16005KT CAVOK TX27/2318Z TN15/2410Z
       
TAF SARP 231100Z 2312/2412 16005KT CAVOK TX26/2318Z TN14/2409Z
       
TAF SASA 231100Z 2312/2412 32005KT 5000 BR SCT008 SCT015 TX22/2318Z TN14/2410Z 
     BECMG 2314/2316 05010KT 9999 BKN020
       
TAF SASJ 231100Z 2312/2412 VRB03KT 5000 BR DZ OVC020 TX23/2318Z TN15/2410Z 
     BECMG 2314/2316 05010KT 9999 BKN030
       
TAF SAVC 231100Z 2312/2412 30018KT 9999 FEW030 SCT090 TX16/2318Z TN10/2411Z 
     PROB40 
     TEMPO 2321/2401 -RA SCT030 BKN060 
     BECMG 2402/2404 32020G30KT SCT030 BKN090
       
TAF SAWE 231100Z 2312/2412 05005KT 9999 -DZ BR BKN015 TX10/2318Z TN06/2411Z 
     PROB40 
     TEMPO 2312/2314 5000 DZ BR OVC007 
     BECMG 2315/2317 36010KT NSW BKN020
       
TAF SAWG 231100Z 2312/2412 02010KT 9999 FEW030 SCT090 TX12/2318Z TN07/2411Z 
     BECMG 2316/2318 SCT030 BKN090
       
TAF SAWH 231100Z 2312/2412 36010KT 9999 BKN030 BKN090 TX10/2318Z TN04/2411Z
       
TAF SAZM 231100Z 2312/2412 30010KT CAVOK TX20/2318Z TN10/2410Z 
     BECMG 2318/2321 09015KT 80CT020 BKN060 
     PROB30 
     TEMPO 2403/2406 50 SCT010 FEW045CB OVC050
       
TAF SAZN 231100Z 2312/2412 VRB03KT CAVOK TX17/2318Z TN07/2411Z 
     BECMG 2315/2317 SCT040
       
TAF SAZS 231100Z 2312/2412 VRB03KT 9999 SCT030 BKN200 TX11/2318Z TN02/2409Z 
     BECMG 2315/2316 29010KT
       
TAF SARI 231100Z 2312/2412 16005KT CAVOK TX27/2318Z TN15/2410Z
       
TAF SAVC 231100Z 2312/2412 30018KT 9999 FEW030 SCT090 TX16/2318Z TN10/2411Z 
     PROB40 
     TEMPO 2321/2401 -RA SCT030 BKN060 
     BECMG 2402/2404 32020G30KT SCT030 BKN090
       
TAF SAME 231100Z 2312/2412 VRB03KT 9999 SCT040 TX23/2320Z TN12/2410Z
       
TAF SARF 231100Z 2312/2412 16005KT 9999 SCT035 BKN100 TX26/2318Z TN13/2409Z
       
TAF SASJ 231100Z 2312/2412 VRB03KT 5000 BR DZ OVC020 TX23/2318Z TN15/2410Z 
     BECMG 2314/2316 05010KT 9999 BKN030
       
TAF SASA 231100Z 2312/2412 32005KT 5000 BR SCT008 SCT015 TX22/2318Z TN14/2410Z 
     BECMG 2314/2316 05010KT 9999 BKN020
       
TAF SAZM 231100Z 2312/2412 30010KT CAVOK TX20/2318Z TN10/2410Z 
     BECMG 2318/2321 09015KT 80CT020 BKN060 
     PROB30 
     TEMPO 2403/2406 50 SCT010 FEW045CB OVC050
       
TAF SAEZ 231100Z 2312/2412 30005KT 9999 SCT035 BKN100 TX21/2318Z TN16/2409Z 
     BECMG 2319/2321 04010KT 9999 SCT030 BKN045 
     BECMG 2400/2403 7000 RA SCT025 OVC045
       
TAF SARP 231100Z 2312/2412 16005KT CAVOK TX26/2318Z TN14/2409Z
       
TAF SAZN 231100Z 2312/2412 VRB03KT CAVOK TX17/2318Z TN07/2411Z 
     BECMG 2315/2317 SCT040
       
TAF SARE 231100Z 2312/2412 16005KT CAVOK TX26/2318Z TN13/2409Z
       
TAF SAWG 231100Z 2312/2412 02010KT 9999 FEW030 SCT090 TX12/2318Z TN07/2411Z 
     BECMG 2316/2318 SCT030 BKN090
       
TAF SAWE 231100Z 2312/2412 05005KT 9999 -DZ BR BKN015 TX10/2318Z TN06/2411Z 
     PROB40 
     TEMPO 2312/2314 5000 DZ BR OVC007 
     BECMG 2315/2317 36010KT NSW BKN020
       
TAF SAAR 231100Z 2312/2412 05005KT CAVOK TX24/2318Z TN14/2410Z 
     BECMG 2316/2318 03010KT 
     BECMG 2323/2402 04005KT 
     TEMPO 2308/2311 3000 BR NSC
       
TAF SAAR 231100Z 2312/2412 05005KT CAVOK TX24/2318Z TN14/2410Z 
     BECMG 2316/2318 03010KT 
     BECMG 2323/2402 04005KT 
     TEMPO 2308/2311 3000 BR NSC
       
TAF SABE 231100Z 2312/2412 31005KT CAVOK TX21/2318Z TN18/2409Z 
     BECMG 2319/2321 09010KT 
     BECMG 2323/2401 07010KT 9999 SCT030 BKN050 
     BECMG 2402/2404 7000 RA 
       
TAF SACO 231100Z 2312/2412 32005KT CAVOK TX22/2318Z TN10/2410Z 
     PROB40 
     TEMPO 2312/2314 5000 BR 
     BECMG 2314/2316 36010KT 9999 SCT030
       
TAF SADF 231100Z 2312/2412 02005KT CAVOK TX21/2318Z TN15/2409Z 
     BECMG 2320/2322 09010KT 9999 SCT020 BKN050 
     PROB30 
     TEMPO 2323/2403 7000 RA
       
TAF SAEZ 231100Z 2312/2412 30005KT 9999 SCT035 BKN100 TX21/2318Z TN16/2409Z 
     BECMG 2319/2321 04010KT 9999 SCT030 BKN045 
     BECMG 2400/2403 7000 RA SCT025 OVC045
       
TAF SAME 231100Z 2312/2412 VRB03KT 9999 SCT040 TX23/2320Z TN12/2410Z
       
TAF SANT 231100Z 2312/2412 18005KT 2000 BR SCT020 BKN040 TX24/2318Z TN16/2410Z 
     BECMG 2314/1316 05010KT 9999 BKN045
       
TAF SARE 231100Z 2312/2412 16005KT CAVOK TX26/2318Z TN13/2409Z
       
TAF SARF 231100Z 2312/2412 16005KT 9999 SCT035 BKN100 TX26/2318Z TN13/2409Z
       
TAF SARI 231100Z 2312/2412 16005KT CAVOK TX27/2318Z TN15/2410Z
       
TAF SARP 231100Z 2312/2412 16005KT CAVOK TX26/2318Z TN14/2409Z
       
TAF SASA 231100Z 2312/2412 32005KT 5000 BR SCT008 SCT015 TX22/2318Z TN14/2410Z 
     BECMG 2314/2316 05010KT 9999 BKN020
       
TAF SASJ 231100Z 2312/2412 VRB03KT 5000 BR DZ OVC020 TX23/2318Z TN15/2410Z 
     BECMG 2314/2316 05010KT 9999 BKN030
       
TAF SAVC 231100Z 2312/2412 30018KT 9999 FEW030 SCT090 TX16/2318Z TN10/2411Z 
     PROB40 
     TEMPO 2321/2401 -RA SCT030 BKN060 
     BECMG 2402/2404 32020G30KT SCT030 BKN090
       
TAF SAWE 231100Z 2312/2412 05005KT 9999 -DZ BR BKN015 TX10/2318Z TN06/2411Z 
     PROB40 
     TEMPO 2312/2314 5000 DZ BR OVC007 
     BECMG 2315/2317 36010KT NSW BKN020
       
TAF SAWG 231100Z 2312/2412 02010KT 9999 FEW030 SCT090 TX12/2318Z TN07/2411Z 
     BECMG 2316/2318 SCT030 BKN090
       
TAF SAWH 231100Z 2312/2412 36010KT 9999 BKN030 BKN090 TX10/2318Z TN04/2411Z
       
TAF SAZM 231100Z 2312/2412 30010KT CAVOK TX20/2318Z TN10/2410Z 
     BECMG 2318/2321 09015KT 80CT020 BKN060 
     PROB30 
     TEMPO 2403/2406 50 SCT010 FEW045CB OVC050
       
TAF SAZN 231100Z 2312/2412 VRB03KT CAVOK TX17/2318Z TN07/2411Z 
     BECMG 2315/2317 SCT040
       
TAF SAZS 231100Z 2312/2412 VRB03KT 9999 SCT030 BKN200 TX11/2318Z TN02/2409Z 
     BECMG 2315/2316 29010KT
       
TAF SASA 231100Z 2312/2412 32005KT 5000 BR SCT008 SCT015 TX22/2318Z TN14/2410Z 
     BECMG 2314/2316 05010KT 9999 BKN020
       
TAF SAZS 231100Z 2312/2412 VRB03KT 9999 SCT030 BKN200 TX11/2318Z TN02/2409Z 
     BECMG 2315/2316 29010KT
       
TAF SADF 231100Z 2312/2412 02005KT CAVOK TX21/2318Z TN15/2409Z 
     BECMG 2320/2322 09010KT 9999 SCT020 BKN050 
     PROB30 
     TEMPO 2323/2403 7000 RA
       
TAF SAAR 231100Z 2312/2412 05005KT CAVOK TX24/2318Z TN14/2410Z 
     BECMG 2316/2318 03010KT 
     BECMG 2323/2402 04005KT 
     TEMPO 2308/2311 3000 BR NSC
       
TAF SABE 231100Z 2312/2412 31005KT CAVOK TX21/2318Z TN18/2409Z 
     BECMG 2319/2321 09010KT 
     BECMG 2323/2401 07010KT 9999 SCT030 BKN050 
     BECMG 2402/2404 7000 RA 
       
TAF SACO 231100Z 2312/2412 32005KT CAVOK TX22/2318Z TN10/2410Z 
     PROB40 
     TEMPO 2312/2314 5000 BR 
     BECMG 2314/2316 36010KT 9999 SCT030
       
TAF SADF 231100Z 2312/2412 02005KT CAVOK TX21/2318Z TN15/2409Z 
     BECMG 2320/2322 09010KT 9999 SCT020 BKN050 
     PROB30 
     TEMPO 2323/2403 7000 RA
       
TAF SAEZ 231100Z 2312/2412 30005KT 9999 SCT035 BKN100 TX21/2318Z TN16/2409Z 
     BECMG 2319/2321 04010KT 9999 SCT030 BKN045 
     BECMG 2400/2403 7000 RA SCT025 OVC045
       
TAF SAME 231100Z 2312/2412 VRB03KT 9999 SCT040 TX23/2320Z TN12/2410Z
       
TAF SANT 231100Z 2312/2412 18005KT 2000 BR SCT020 BKN040 TX24/2318Z TN16/2410Z 
     BECMG 2314/1316 05010KT 9999 BKN045
       
TAF SARE 231100Z 2312/2412 16005KT CAVOK TX26/2318Z TN13/2409Z
       
TAF SARF 231100Z 2312/2412 16005KT 9999 SCT035 BKN100 TX26/2318Z TN13/2409Z
       
TAF SARI 231100Z 2312/2412 16005KT CAVOK TX27/2318Z TN15/2410Z
       
TAF SARP 231100Z 2312/2412 16005KT CAVOK TX26/2318Z TN14/2409Z
       
TAF SASA 231100Z 2312/2412 32005KT 5000 BR SCT008 SCT015 TX22/2318Z TN14/2410Z 
     BECMG 2314/2316 05010KT 9999 BKN020
       
TAF SASJ 231100Z 2312/2412 VRB03KT 5000 BR DZ OVC020 TX23/2318Z TN15/2410Z 
     BECMG 2314/2316 05010KT 9999 BKN030
       
TAF SAVC 231100Z 2312/2412 30018KT 9999 FEW030 SCT090 TX16/2318Z TN10/2411Z 
     PROB40 
     TEMPO 2321/2401 -RA SCT030 BKN060 
     BECMG 2402/2404 32020G30KT SCT030 BKN090
       
TAF SAWE 231100Z 2312/2412 05005KT 9999 -DZ BR BKN015 TX10/2318Z TN06/2411Z 
     PROB40 
     TEMPO 2312/2314 5000 DZ BR OVC007 
     BECMG 2315/2317 36010KT NSW BKN020
       
TAF SAWG 231100Z 2312/2412 02010KT 9999 FEW030 SCT090 TX12/2318Z TN07/2411Z 
     BECMG 2316/2318 SCT030 BKN090
       
TAF SAWH 231100Z 2312/2412 36010KT 9999 BKN030 BKN090 TX10/2318Z TN04/2411Z
       
TAF SAZM 231100Z 2312/2412 30010KT CAVOK TX20/2318Z TN10/2410Z 
     BECMG 2318/2321 09015KT 80CT020 BKN060 
     PROB30 
     TEMPO 2403/2406 50 SCT010 FEW045CB OVC050
       
TAF SAZN 231100Z 2312/2412 VRB03KT CAVOK TX17/2318Z TN07/2411Z 
     BECMG 2315/2317 SCT040
       
TAF SAZS 231100Z 2312/2412 VRB03KT 9999 SCT030 BKN200 TX11/2318Z TN02/2409Z 
     BECMG 2315/2316 29010KT
       
TAF SANT 231100Z 2312/2412 18005KT 2000 BR SCT020 BKN040 TX24/2318Z TN16/2410Z 
     BECMG 2314/1316 05010KT 9999 BKN045
       
TAF SAWH 231100Z 2312/2412 36010KT 9999 BKN030 BKN090 TX10/2318Z TN04/2411Z